Terminal Aerodrome Forecast
Issued by NWS

Home | Current Version | Previous Version | Text Only | Print | Product List | Glossary On
Versions: 1 2 3 4 5 6 7 8 9 10 11 12 13 14 15 16
565
FTUS44 KCRP 180522
TAFLRD
TAF
KLRD 180522Z 1806/1906 16003KT 3SM BR OVC003
     FM180900 VRB03KT 2SM BR OVC002
     FM181600 09004KT P6SM OVC008
     FM190000 06004KT 4SM BR OVC004=

USA.gov is the U.S. government's official web portal to all federal, state and local government web resources and services.